createdAt,value
2022-08-19T00:01:53.482Z,14.82
2022-08-19T00:06:50.024Z,14.48
2022-08-19T00:11:46.877Z,18.88
2022-08-19T00:16:44.346Z,22.10
2022-08-19T00:21:40.718Z,26.85
2022-08-19T00:26:37.794Z,28.67
2022-08-19T00:31:34.335Z,27.05
2022-08-19T00:36:30.791Z,24.55
2022-08-19T00:41:27.391Z,24.15
2022-08-19T00:46:23.662Z,25.75
2022-08-19T00:51:20.023Z,25.30
2022-08-19T00:56:16.472Z,26.58
2022-08-19T01:01:12.856Z,27.75
2022-08-19T01:06:09.138Z,27.02
2022-08-19T01:11:05.535Z,30.50
2022-08-19T01:16:04.510Z,26.25
2022-08-19T01:21:03.163Z,25.25
2022-08-19T01:25:59.397Z,24.60
2022-08-19T01:30:55.844Z,25.77
2022-08-19T01:35:53.492Z,25.67
2022-08-19T01:40:49.759Z,27.70
2022-08-19T01:45:46.863Z,24.23
2022-08-19T01:50:44.521Z,24.40
2022-08-19T01:55:42.363Z,21.60
2022-08-19T02:00:38.756Z,25.95
2022-08-19T02:05:35.083Z,28.02
2022-08-19T02:10:32.920Z,34.17
2022-08-19T02:15:29.143Z,25.27
2022-08-19T02:20:25.516Z,25.25
2022-08-19T02:25:21.960Z,26.45
2022-08-19T02:30:19.862Z,30.30
2022-08-19T02:35:16.293Z,29.48
2022-08-19T02:40:13.339Z,27.90
2022-08-19T02:45:10.208Z,28.67
2022-08-19T02:50:07.325Z,31.08
2022-08-19T02:55:03.807Z,31.20
2022-08-19T03:00:00.127Z,32.30
2022-08-19T03:04:56.447Z,38.38
2022-08-19T03:09:52.687Z,35.10
2022-08-19T03:14:48.935Z,38.00
2022-08-19T03:19:45.388Z,33.45
2022-08-19T03:24:41.651Z,38.65
2022-08-19T03:29:43.247Z,37.47
2022-08-19T03:39:37.954Z,39.00
2022-08-19T03:44:34.329Z,40.83
2022-08-19T03:49:31.956Z,38.78
2022-08-19T03:54:28.766Z,40.15
2022-08-19T03:59:26.855Z,39.65
2022-08-19T04:04:23.302Z,37.35
2022-08-19T04:09:20.354Z,38.05
2022-08-19T04:14:18.247Z,35.55
2022-08-19T04:19:15.967Z,27.67
2022-08-19T04:24:13.017Z,34.17
2022-08-19T04:29:12.708Z,35.63
2022-08-19T04:34:11.900Z,45.15
2022-08-19T04:39:09.722Z,35.78
2022-08-19T04:44:08.686Z,39.13
2022-08-19T04:49:13.193Z,48.53
2022-08-19T04:54:10.162Z,46.13
2022-08-19T04:59:07.686Z,36.42
2022-08-19T05:04:05.548Z,43.90
2022-08-19T05:09:03.539Z,41.47
2022-08-19T05:14:02.695Z,52.80
2022-08-19T05:19:17.598Z,44.72
2022-08-19T05:24:14.800Z,45.83
2022-08-19T05:29:11.143Z,40.85
2022-08-19T05:34:08.094Z,46.58
2022-08-19T05:39:19.354Z,44.38
2022-08-19T05:44:16.274Z,41.10
2022-08-19T05:49:12.809Z,41.45
2022-08-19T05:54:09.601Z,43.50
2022-08-19T05:59:10.500Z,40.60
2022-08-19T06:04:07.352Z,36.83
2022-08-19T06:09:07.345Z,36.72
2022-08-19T06:14:05.124Z,46.10
2022-08-19T06:19:02.574Z,36.08
2022-08-19T06:23:59.280Z,41.60
2022-08-19T06:28:55.507Z,37.90
2022-08-19T06:33:51.840Z,34.63
2022-08-19T06:38:48.500Z,50.20
2022-08-19T06:43:45.043Z,37.13
2022-08-19T06:48:44.952Z,37.53
2022-08-19T06:53:47.964Z,44.70
2022-08-19T06:58:45.693Z,40.38
2022-08-19T07:03:42.062Z,39.38
2022-08-19T07:08:41.900Z,40.17
2022-08-19T07:13:40.668Z,38.90
2022-08-19T07:18:38.319Z,40.35
2022-08-19T07:23:34.965Z,49.85
2022-08-19T07:28:32.085Z,46.97
2022-08-19T07:33:28.629Z,46.92
2022-08-19T07:38:25.854Z,44.70
2022-08-19T07:43:26.196Z,51.17
2022-08-19T07:48:31.404Z,43.03
2022-08-19T07:53:27.712Z,44.63
2022-08-19T07:58:24.139Z,38.33
2022-08-19T08:03:42.524Z,42.40
2022-08-19T08:08:57.431Z,33.33
2022-08-19T08:14:00.378Z,34.10
2022-08-19T08:18:58.228Z,33.72
2022-08-19T08:23:56.485Z,35.67
2022-08-19T08:28:53.384Z,34.97
2022-08-19T08:33:49.806Z,31.70
2022-08-19T08:38:46.876Z,30.60
2022-08-19T08:43:46.291Z,32.30
2022-08-19T08:49:09.734Z,31.45
2022-08-19T08:54:07.633Z,28.90
2022-08-19T08:59:09.310Z,24.10
2022-08-19T09:04:06.942Z,20.50
2022-08-19T09:09:13.194Z,22.30
2022-08-19T09:14:23.566Z,20.65
2022-08-19T09:19:25.951Z,23.95
2022-08-19T09:24:31.274Z,26.27
2022-08-19T09:29:27.706Z,22.63
2022-08-19T09:34:24.026Z,23.20
2022-08-19T09:39:20.265Z,25.10
2022-08-19T09:44:17.195Z,26.80
2022-08-19T09:49:15.395Z,29.27
2022-08-19T09:54:11.712Z,26.65
2022-08-19T09:59:08.161Z,23.13
2022-08-19T10:04:19.661Z,28.52
2022-08-19T10:09:18.207Z,32.38
2022-08-19T10:14:30.339Z,22.73
2022-08-19T10:19:30.948Z,26.85
2022-08-19T10:24:28.447Z,23.67
2022-08-19T10:29:32.483Z,22.58
2022-08-19T10:34:30.671Z,25.33
2022-08-19T10:39:30.667Z,23.95
2022-08-19T10:44:32.527Z,24.45
2022-08-19T10:49:29.050Z,28.63
2022-08-19T10:54:45.645Z,26.75
2022-08-19T10:59:42.050Z,25.63
2022-08-19T11:04:39.317Z,27.63
2022-08-19T11:09:40.730Z,27.08
2022-08-19T11:14:37.332Z,27.05
2022-08-19T11:19:34.056Z,26.38
2022-08-19T11:24:31.339Z,25.58
2022-08-19T11:29:30.058Z,26.90
2022-08-19T11:34:28.443Z,31.48
2022-08-19T11:39:25.195Z,27.42
2022-08-19T11:44:21.548Z,21.15
2022-08-19T11:49:19.906Z,19.58
2022-08-19T11:54:19.334Z,23.52
2022-08-19T11:59:15.704Z,21.92
2022-08-19T12:04:12.268Z,21.30
2022-08-19T12:09:10.939Z,15.32
2022-08-19T12:14:14.539Z,17.75
2022-08-19T12:19:11.863Z,18.95
2022-08-19T12:24:08.543Z,15.85
2022-08-19T12:29:05.053Z,17.08
2022-08-19T12:34:02.351Z,17.10
2022-08-19T12:38:59.647Z,18.60
2022-08-19T12:43:56.319Z,17.10
2022-08-19T12:48:55.402Z,16.88
2022-08-19T12:53:52.513Z,16.88
2022-08-19T12:58:50.796Z,14.55
2022-08-19T13:03:47.735Z,16.10
2022-08-19T13:08:44.152Z,14.88
2022-08-19T13:13:43.393Z,19.90
2022-08-19T13:18:40.522Z,13.48
2022-08-19T13:23:36.862Z,14.80
2022-08-19T13:28:52.370Z,12.00
2022-08-19T13:33:48.679Z,14.25
2022-08-19T13:38:45.810Z,14.18
2022-08-19T13:43:42.378Z,13.57
2022-08-19T13:48:38.781Z,16.13
2022-08-19T13:53:35.120Z,14.20
2022-08-19T13:58:32.503Z,14.48
2022-08-19T14:03:32.435Z,13.32
2022-08-19T14:08:29.091Z,13.25
2022-08-19T14:13:25.418Z,14.07
2022-08-19T14:18:21.890Z,12.05
2022-08-19T14:23:20.768Z,12.70
2022-08-19T14:28:17.842Z,12.60
2022-08-19T14:33:15.142Z,12.13
2022-08-19T14:38:16.250Z,14.00
2022-08-19T14:43:12.803Z,12.55
2022-08-19T14:48:12.573Z,16.17
2022-08-19T14:53:16.728Z,12.98
2022-08-19T14:58:29.026Z,12.15
2022-08-19T15:03:26.868Z,13.43
2022-08-19T15:08:25.838Z,12.38
2022-08-19T15:13:22.560Z,11.68
2022-08-19T15:18:21.246Z,13.40
2022-08-19T15:23:19.282Z,14.68
2022-08-19T15:28:17.249Z,12.95
2022-08-19T15:33:18.391Z,12.48
2022-08-19T15:38:14.731Z,15.33
2022-08-19T15:43:11.645Z,15.68
2022-08-19T15:48:08.064Z,12.40
2022-08-19T15:53:06.884Z,14.52
2022-08-19T15:58:28.830Z,14.18
2022-08-19T16:03:44.608Z,12.98
2022-08-19T16:08:49.282Z,13.60
2022-08-19T16:13:45.895Z,11.05
2022-08-19T16:18:42.263Z,13.20
2022-08-19T16:23:38.876Z,9.48
2022-08-19T16:28:35.158Z,11.82
2022-08-19T16:33:31.939Z,13.30
2022-08-19T16:38:28.210Z,12.45
2022-08-19T16:43:25.462Z,11.27
2022-08-19T16:48:23.696Z,14.85
2022-08-19T16:53:23.833Z,11.52
2022-08-19T16:58:28.451Z,10.23
2022-08-19T17:03:27.830Z,11.48
2022-08-19T17:08:32.471Z,11.07
2022-08-19T17:13:29.630Z,11.57
2022-08-19T17:18:26.258Z,11.38
2022-08-19T17:23:43.298Z,13.45
2022-08-19T17:28:40.114Z,12.85
2022-08-19T17:33:36.369Z,12.85
2022-08-19T17:38:38.921Z,12.77
2022-08-19T17:43:40.047Z,14.05
2022-08-19T17:48:39.155Z,11.80
2022-08-19T17:53:36.170Z,13.60
2022-08-19T17:58:32.599Z,13.13
2022-08-19T18:03:30.474Z,12.82
2022-08-19T18:08:26.775Z,10.40
2022-08-19T18:13:23.091Z,12.25
2022-08-19T18:18:19.331Z,13.82
2022-08-19T18:23:44.316Z,11.48
2022-08-19T18:28:32.285Z,12.90
2022-08-19T18:33:28.572Z,11.25
2022-08-19T18:38:43.260Z,10.82
2022-08-19T18:43:58.223Z,16.48
2022-08-19T18:49:07.666Z,13.68
2022-08-19T18:54:04.076Z,13.65
2022-08-19T18:59:00.519Z,11.82
2022-08-19T19:03:59.863Z,10.75
2022-08-19T19:08:56.782Z,11.27
2022-08-19T19:13:53.195Z,14.32
2022-08-19T19:18:52.495Z,13.55
2022-08-19T19:23:48.802Z,14.63
2022-08-19T19:28:46.386Z,10.98
2022-08-19T19:33:43.147Z,13.90
2022-08-19T19:38:39.632Z,14.90
2022-08-19T19:43:41.031Z,14.98
2022-08-19T19:48:38.258Z,17.88
2022-08-19T19:53:34.667Z,17.50
2022-08-19T19:58:32.351Z,17.15
2022-08-19T20:03:29.908Z,12.93
2022-08-19T20:08:45.924Z,14.23
2022-08-19T20:13:42.309Z,13.00
2022-08-19T20:18:38.992Z,17.00
2022-08-19T20:23:35.660Z,11.85
2022-08-19T20:28:31.904Z,15.55
2022-08-19T20:33:30.072Z,16.58
2022-08-19T20:38:26.435Z,16.08
2022-08-19T20:43:22.891Z,14.48
2022-08-19T20:48:19.184Z,15.77
2022-08-19T20:53:16.902Z,15.07
2022-08-19T20:58:13.392Z,15.48
2022-08-19T21:03:09.743Z,16.42
2022-08-19T21:08:06.070Z,17.08
2022-08-19T21:13:03.775Z,18.27
2022-08-19T21:18:00.074Z,18.50
2022-08-19T21:22:56.311Z,14.77
2022-08-19T21:27:52.727Z,19.08
2022-08-19T21:32:52.376Z,15.82
2022-08-19T21:37:49.818Z,19.73
2022-08-19T21:42:46.479Z,17.70
2022-08-19T21:47:42.954Z,20.15
2022-08-19T21:52:39.607Z,17.90
2022-08-19T21:57:36.246Z,19.00
2022-08-19T22:02:32.510Z,17.45
2022-08-19T22:07:28.838Z,18.98
2022-08-19T22:12:27.218Z,16.88
2022-08-19T22:17:24.113Z,17.95
2022-08-19T22:22:21.701Z,18.67
2022-08-19T22:27:18.525Z,18.60
2022-08-19T22:32:27.095Z,16.48
2022-08-19T22:37:25.359Z,19.45
2022-08-19T22:42:22.224Z,17.05
2022-08-19T22:47:18.459Z,17.70
2022-08-19T22:52:18.959Z,16.35
2022-08-19T22:57:15.518Z,18.50
2022-08-19T23:02:17.936Z,17.30
2022-08-19T23:07:14.247Z,20.15
2022-08-19T23:12:13.305Z,16.45
2022-08-19T23:17:09.706Z,17.52
2022-08-19T23:22:05.939Z,15.60
2022-08-19T23:27:20.737Z,17.90
2022-08-19T23:32:19.938Z,16.40
2022-08-19T23:37:16.239Z,17.08
2022-08-19T23:42:13.476Z,16.00
2022-08-19T23:47:09.728Z,16.73
2022-08-19T23:52:06.352Z,15.88
2022-08-19T23:57:02.671Z,12.55
